Time;durP1;ratioP1;P1;durP2;ratioP2;P2;SDS_P1;SDS_P2;PMS_P1;PMS_P2;Temp;Humidity;BMP_temperature;BMP_pressure;BME280_temperature;BME280_humidity;BME280_pressure;Samples;Min_cycle;Max_cycle;Signal;HPM_P1;HPM_P2
2023/09/06 00:03:27;;;;;;;;;;;24.00;61.90;;;;;;8543823;27;19914;-50
2023/09/06 00:07:27;;;;;;;;;;;24.00;61.90;;;;;;8543320;27;19997;-51
2023/09/06 00:11:28;;;;;;;;;;;24.00;61.50;;;;;;8542852;27;19927;-51
2023/09/06 00:15:28;;;;;;;;;;;24.00;61.80;;;;;;8543320;27;19915;-51
2023/09/06 00:19:29;;;;;;;;;;;24.00;61.50;;;;;;8542612;27;19915;-51
2023/09/06 00:23:31;;;;;;;;;;;24.00;61.40;;;;;;8543523;27;19965;-49
2023/09/06 00:27:31;;;;;;;;;;;23.90;61.10;;;;;;8542023;27;19919;-53
2023/09/06 00:31:32;;;;;;;;;;;24.00;61.10;;;;;;8524034;27;20450;-53
2023/09/06 00:35:33;;;;;;;;;;;23.90;60.90;;;;;;8542965;27;19915;-51
2023/09/06 00:39:33;;;;;;;;;;;24.00;60.70;;;;;;8538339;27;19907;-47
2023/09/06 00:43:34;;;;;;;;;;;23.90;60.40;;;;;;8527199;27;19919;-51
2023/09/06 00:47:34;;;;;;;;;;;23.90;60.60;;;;;;8526238;27;19976;-50
2023/09/06 00:51:35;;;;;;;;;;;23.90;60.30;;;;;;8526293;27;20407;-49
2023/09/06 00:55:37;;;;;;;;;;;23.90;60.30;;;;;;8517140;27;20597;-48
2023/09/06 00:59:38;;;;;;;;;;;23.80;60.00;;;;;;8510323;27;20451;-48
2023/09/06 01:03:41;;;;;;;;;;;23.80;60.10;;;;;;8494587;28;19911;-49
2023/09/06 01:08:00;;;;;;;;;;;23.80;60.00;;;;;;8510356;27;19995;-51
2023/09/06 01:12:00;;;;;;;;;;;23.80;60.00;;;;;;8494926;28;20283;-48
2023/09/06 01:16:01;;;;;;;;;;;23.80;60.00;;;;;;8494774;28;19922;-51
2023/09/06 01:20:15;;;;;;;;;;;23.80;60.00;;;;;;8495990;28;19963;-50
2023/09/06 01:24:16;;;;;;;;;;;23.80;60.00;;;;;;8496161;28;19966;-51
2023/09/06 01:28:17;;;;;;;;;;;23.70;59.90;;;;;;8497269;27;19911;-51
2023/09/06 01:32:17;;;;;;;;;;;23.70;59.90;;;;;;8500268;27;19912;-48
2023/09/06 01:36:18;;;;;;;;;;;23.70;59.90;;;;;;8502491;27;20369;-52
2023/09/06 01:40:19;;;;;;;;;;;23.70;60.60;;;;;;8502922;27;19915;-48
2023/09/06 01:44:20;;;;;;;;;;;23.70;59.90;;;;;;8501442;27;20284;-51
2023/09/06 01:48:21;;;;;;;;;;;23.70;59.90;;;;;;8501704;27;19959;-51
2023/09/06 01:52:21;;;;;;;;;;;23.70;59.90;;;;;;8500871;27;19914;-51
2023/09/06 01:56:22;;;;;;;;;;;23.70;59.90;;;;;;8502369;27;19915;-50
2023/09/06 02:00:25;;;;;;;;;;;23.70;59.90;;;;;;8501342;27;19919;-49
2023/09/06 02:04:25;;;;;;;;;;;23.70;59.80;;;;;;8502621;27;19926;-50
2023/09/06 02:08:26;;;;;;;;;;;23.70;59.80;;;;;;8501301;27;19918;-50
2023/09/06 02:12:27;;;;;;;;;;;23.70;59.80;;;;;;8501617;27;19933;-50
2023/09/06 02:16:30;;;;;;;;;;;23.70;59.80;;;;;;8482692;27;19916;-50
2023/09/06 02:20:30;;;;;;;;;;;23.70;59.80;;;;;;8500536;27;19963;-51
2023/09/06 02:24:31;;;;;;;;;;;23.70;59.80;;;;;;8501482;27;19923;-49
2023/09/06 02:28:32;;;;;;;;;;;23.70;59.80;;;;;;8516273;27;19912;-51
2023/09/06 02:32:34;;;;;;;;;;;23.60;59.80;;;;;;8501360;27;19918;-49
2023/09/06 02:36:37;;;;;;;;;;;23.60;59.80;;;;;;8499748;27;20363;-50
2023/09/06 02:40:40;;;;;;;;;;;23.70;59.90;;;;;;8500833;27;20397;-50
2023/09/06 02:44:41;;;;;;;;;;;23.60;59.80;;;;;;8500032;27;20265;-49
2023/09/06 02:48:46;;;;;;;;;;;23.60;59.80;;;;;;8500399;27;19912;-51
2023/09/06 02:52:47;;;;;;;;;;;23.60;59.80;;;;;;8500402;27;19918;-47
2023/09/06 02:56:48;;;;;;;;;;;23.60;59.70;;;;;;8500828;27;19915;-48
2023/09/06 03:00:49;;;;;;;;;;;23.60;59.70;;;;;;8500388;27;19907;-51
2023/09/06 03:04:55;;;;;;;;;;;23.60;59.80;;;;;;8499134;27;20593;-49
2023/09/06 03:08:55;;;;;;;;;;;23.60;59.80;;;;;;8499907;27;19911;-50
2023/09/06 03:12:57;;;;;;;;;;;23.60;59.70;;;;;;8498808;27;19915;-51
2023/09/06 03:16:57;;;;;;;;;;;23.60;59.70;;;;;;8500038;27;20340;-49
2023/09/06 03:21:04;;;;;;;;;;;23.60;59.70;;;;;;8498112;27;20300;-50
2023/09/06 03:25:04;;;;;;;;;;;23.60;59.70;;;;;;8499587;27;19920;-50
2023/09/06 03:29:10;;;;;;;;;;;23.60;59.70;;;;;;8499421;27;19918;-48
2023/09/06 03:33:10;;;;;;;;;;;23.60;59.70;;;;;;8497986;27;19947;-51
2023/09/06 03:37:12;;;;;;;;;;;23.60;59.70;;;;;;8499199;27;19927;-50
2023/09/06 03:41:13;;;;;;;;;;;23.60;59.70;;;;;;8497849;27;19918;-49
2023/09/06 03:45:21;;;;;;;;;;;23.60;59.70;;;;;;8498699;27;20388;-48
2023/09/06 03:49:21;;;;;;;;;;;23.60;59.70;;;;;;8497602;27;20071;-49
2023/09/06 03:53:25;;;;;;;;;;;23.50;59.60;;;;;;8497729;27;19968;-50
2023/09/06 03:57:26;;;;;;;;;;;23.60;59.70;;;;;;8497979;27;20475;-48
2023/09/06 04:01:27;;;;;;;;;;;23.60;59.60;;;;;;8480424;27;20310;-48
2023/09/06 04:05:27;;;;;;;;;;;23.60;59.60;;;;;;8497535;27;20438;-49
2023/09/06 04:09:28;;;;;;;;;;;23.60;59.60;;;;;;8496910;27;20392;-47
2023/09/06 04:13:29;;;;;;;;;;;23.60;59.60;;;;;;8498236;27;19959;-51
2023/09/06 04:17:29;;;;;;;;;;;23.50;59.60;;;;;;8496309;27;19965;-48
2023/09/06 04:21:30;;;;;;;;;;;23.50;59.60;;;;;;8496965;27;19991;-50
2023/09/06 04:25:34;;;;;;;;;;;23.50;59.60;;;;;;8495333;27;19940;-50
2023/09/06 04:29:34;;;;;;;;;;;23.60;59.60;;;;;;8511799;27;19912;-48
2023/09/06 04:33:35;;;;;;;;;;;23.60;59.60;;;;;;8495065;28;19960;-49
2023/09/06 04:37:38;;;;;;;;;;;23.50;59.60;;;;;;8495755;28;19930;-49
2023/09/06 04:41:38;;;;;;;;;;;23.50;59.60;;;;;;8494650;28;19918;-50
2023/09/06 04:45:39;;;;;;;;;;;23.50;59.60;;;;;;8495414;28;20577;-49
2023/09/06 04:49:40;;;;;;;;;;;23.50;59.60;;;;;;8477184;28;20284;-51
2023/09/06 04:53:41;;;;;;;;;;;23.50;59.60;;;;;;8494345;28;20410;-51
2023/09/06 04:57:42;;;;;;;;;;;23.50;59.60;;;;;;8495805;27;19922;-50
2023/09/06 05:01:42;;;;;;;;;;;23.50;59.60;;;;;;8494208;28;19908;-50
2023/09/06 05:05:43;;;;;;;;;;;23.50;59.60;;;;;;8494660;27;19912;-50
2023/09/06 05:09:45;;;;;;;;;;;23.50;59.60;;;;;;8494760;28;19951;-50
2023/09/06 05:13:46;;;;;;;;;;;23.50;59.60;;;;;;8495068;28;19980;-51
2023/09/06 05:17:46;;;;;;;;;;;23.50;59.60;;;;;;8494264;28;19941;-49
2023/09/06 05:21:47;;;;;;;;;;;23.50;59.60;;;;;;8429051;28;1868575;-50
2023/09/06 05:25:47;;;;;;;;;;;23.50;59.60;;;;;;8496059;27;19950;-51
2023/09/06 05:29:49;;;;;;;;;;;23.50;59.60;;;;;;8495614;28;20388;-50
2023/09/06 05:33:50;;;;;;;;;;;23.50;59.60;;;;;;8496420;28;19918;-50
2023/09/06 05:37:51;;;;;;;;;;;23.50;59.60;;;;;;8494924;28;20022;-50
2023/09/06 05:41:53;;;;;;;;;;;23.50;59.60;;;;;;8496042;28;19912;-51
2023/09/06 05:45:54;;;;;;;;;;;23.50;59.60;;;;;;8495089;28;20288;-52
2023/09/06 05:49:55;;;;;;;;;;;23.50;59.60;;;;;;8496091;28;19934;-50
2023/09/06 05:53:58;;;;;;;;;;;23.50;59.60;;;;;;8494878;28;19912;-48
2023/09/06 05:57:59;;;;;;;;;;;23.50;59.60;;;;;;8495937;27;20288;-49
2023/09/06 06:01:59;;;;;;;;;;;23.50;59.60;;;;;;8511357;27;19911;-48
2023/09/06 06:06:00;;;;;;;;;;;23.50;59.60;;;;;;8495217;28;19923;-49
2023/09/06 06:10:00;;;;;;;;;;;23.50;59.60;;;;;;8495511;28;19916;-50
2023/09/06 06:14:03;;;;;;;;;;;23.50;59.60;;;;;;8494603;28;19915;-51
2023/09/06 06:18:05;;;;;;;;;;;23.50;59.60;;;;;;8498685;27;19911;-50
2023/09/06 06:22:05;;;;;;;;;;;23.50;59.60;;;;;;8499882;27;19930;-48
2023/09/06 06:26:06;;;;;;;;;;;23.50;59.60;;;;;;8502174;27;19912;-50
2023/09/06 06:30:07;;;;;;;;;;;23.50;59.60;;;;;;8516809;27;20352;-50
2023/09/06 06:34:08;;;;;;;;;;;23.50;59.60;;;;;;8501563;27;20053;-50
2023/09/06 06:38:08;;;;;;;;;;;23.50;59.60;;;;;;8500712;27;19916;-50
2023/09/06 06:42:09;;;;;;;;;;;23.50;59.60;;;;;;8501009;27;20391;-50
2023/09/06 06:46:22;;;;;;;;;;;23.40;59.60;;;;;;8500762;27;19974;-51
2023/09/06 06:50:23;;;;;;;;;;;23.50;59.60;;;;;;8499336;27;19915;-51
2023/09/06 06:54:25;;;;;;;;;;;23.50;59.60;;;;;;8500246;27;19998;-49
2023/09/06 06:58:25;;;;;;;;;;;23.50;59.60;;;;;;8499137;27;19915;-50
2023/09/06 07:02:26;;;;;;;;;;;23.50;59.60;;;;;;8499689;27;19921;-51
2023/09/06 07:06:27;;;;;;;;;;;23.50;59.60;;;;;;8499663;27;19918;-51
2023/09/06 07:10:27;;;;;;;;;;;23.50;59.60;;;;;;8500286;27;19907;-49
2023/09/06 07:14:28;;;;;;;;;;;23.40;59.60;;;;;;8499317;27;19911;-50
2023/09/06 07:18:29;;;;;;;;;;;23.40;59.50;;;;;;8500240;27;19961;-48
2023/09/06 07:22:29;;;;;;;;;;;23.40;59.60;;;;;;8499375;27;19988;-50
2023/09/06 07:26:30;;;;;;;;;;;23.40;59.60;;;;;;8499291;27;19918;-51
2023/09/06 07:30:31;;;;;;;;;;;23.40;59.60;;;;;;8498969;27;19922;-51
2023/09/06 07:34:32;;;;;;;;;;;23.40;59.60;;;;;;8498017;27;20010;-49
2023/09/06 07:38:32;;;;;;;;;;;23.40;59.60;;;;;;8499215;27;19911;-51
2023/09/06 07:42:36;;;;;;;;;;;23.40;59.60;;;;;;8497810;27;19912;-50
2023/09/06 07:46:38;;;;;;;;;;;23.40;59.60;;;;;;8498933;27;19908;-51
2023/09/06 07:50:38;;;;;;;;;;;23.40;59.50;;;;;;8497746;27;19919;-49
2023/09/06 07:54:39;;;;;;;;;;;23.40;59.60;;;;;;8498830;27;19912;-50
2023/09/06 07:58:39;;;;;;;;;;;23.40;59.60;;;;;;8497888;27;19950;-48
2023/09/06 08:02:40;;;;;;;;;;;23.40;59.60;;;;;;8498027;27;19919;-51
2023/09/06 08:06:40;;;;;;;;;;;23.40;59.60;;;;;;8497716;27;20352;-49
2023/09/06 08:10:41;;;;;;;;;;;23.40;59.60;;;;;;8479443;27;20337;-49
2023/09/06 08:14:42;;;;;;;;;;;23.40;59.60;;;;;;8498031;27;20010;-49
2023/09/06 08:18:42;;;;;;;;;;;23.40;59.60;;;;;;8513222;27;19911;-49
2023/09/06 08:22:45;;;;;;;;;;;23.40;59.60;;;;;;8498863;27;19972;-50
2023/09/06 08:26:48;;;;;;;;;;;23.40;59.60;;;;;;8497342;27;19911;-49
2023/09/06 08:30:49;;;;;;;;;;;23.40;59.60;;;;;;8497888;27;19939;-50
2023/09/06 08:34:50;;;;;;;;;;;23.40;59.50;;;;;;8496509;27;19911;-50
2023/09/06 08:38:51;;;;;;;;;;;23.40;59.50;;;;;;8498155;27;20306;-51
2023/09/06 08:42:52;;;;;;;;;;;23.40;59.50;;;;;;8496837;27;19911;-51
2023/09/06 08:46:53;;;;;;;;;;;23.40;59.50;;;;;;8497148;27;19954;-51
2023/09/06 08:50:54;;;;;;;;;;;23.40;59.50;;;;;;8497575;27;19918;-50
2023/09/06 08:54:55;;;;;;;;;;;23.40;59.50;;;;;;8496264;27;20368;-51
2023/09/06 08:58:56;;;;;;;;;;;23.40;59.50;;;;;;8497376;27;19915;-51
2023/09/06 09:02:57;;;;;;;;;;;23.40;59.50;;;;;;8495625;27;19911;-51
2023/09/06 09:07:00;;;;;;;;;;;23.40;59.50;;;;;;8496577;28;20308;-51
2023/09/06 09:11:14;;;;;;;;;;;23.40;59.50;;;;;;8495525;28;20288;-52
2023/09/06 09:15:15;;;;;;;;;;;23.40;59.50;;;;;;8496500;27;20498;-52
2023/09/06 09:19:15;;;;;;;;;;;23.40;59.50;;;;;;8496179;28;20363;-50
2023/09/06 09:23:16;;;;;;;;;;;23.40;59.50;;;;;;8495560;28;19931;-50
2023/09/06 09:27:18;;;;;;;;;;;23.40;59.50;;;;;;8496627;27;19912;-52
2023/09/06 09:31:19;;;;;;;;;;;23.40;59.50;;;;;;8495330;28;19908;-50
2023/09/06 09:35:19;;;;;;;;;;;23.40;59.50;;;;;;8495809;28;19969;-51
2023/09/06 09:39:25;;;;;;;;;;;23.40;59.50;;;;;;8495114;28;19912;-49
2023/09/06 09:43:26;;;;;;;;;;;23.40;59.50;;;;;;8496088;28;19911;-50
2023/09/06 09:47:27;;;;;;;;;;;23.40;59.50;;;;;;8494711;28;20014;-52
2023/09/06 09:51:29;;;;;;;;;;;23.40;59.40;;;;;;8497524;27;19956;-49
2023/09/06 09:55:32;;;;;;;;;;;23.40;59.40;;;;;;8501923;27;19950;-50
2023/09/06 09:59:33;;;;;;;;;;;23.40;59.50;;;;;;8501477;27;20364;-51
2023/09/06 10:03:38;;;;;;;;;;;23.40;59.50;;;;;;8502319;27;19912;-50
2023/09/06 10:07:42;;;;;;;;;;;23.40;59.50;;;;;;8500420;27;20394;-50
2023/09/06 10:11:43;;;;;;;;;;;23.40;59.50;;;;;;8502026;27;20402;-52
2023/09/06 10:15:43;;;;;;;;;;;23.40;59.50;;;;;;8500705;27;20303;-50
2023/09/06 10:19:44;;;;;;;;;;;23.40;59.50;;;;;;8501530;27;19929;-50
2023/09/06 10:23:46;;;;;;;;;;;23.40;59.40;;;;;;8448927;28;19930;-49
2023/09/06 10:27:51;;;;;;;;;;;23.40;59.40;;;;;;8467856;27;19999;-49
2023/09/06 10:31:52;;;;;;;;;;;23.40;59.40;;;;;;8467092;28;20003;-51
2023/09/06 10:35:56;;;;;;;;;;;23.40;59.40;;;;;;8448338;28;19922;-49
2023/09/06 10:39:57;;;;;;;;;;;23.40;59.40;;;;;;8467179;28;19920;-51
2023/09/06 10:43:57;;;;;;;;;;;23.40;59.40;;;;;;8465890;28;19960;-51
2023/09/06 10:48:08;;;;;;;;;;;23.40;59.40;;;;;;8466969;28;19919;-51
2023/09/06 10:52:09;;;;;;;;;;;23.40;59.40;;;;;;8465431;28;19914;-49
2023/09/06 10:56:12;;;;;;;;;;;23.40;59.40;;;;;;8466756;27;19923;-51
2023/09/06 11:00:17;;;;;;;;;;;23.40;59.40;;;;;;8465849;28;20324;-51
2023/09/06 11:04:24;;;;;;;;;;;23.40;59.40;;;;;;8466326;28;20015;-50
2023/09/06 11:08:26;;;;;;;;;;;23.40;59.40;;;;;;8466555;28;19919;-51
2023/09/06 11:12:26;;;;;;;;;;;23.40;59.40;;;;;;8464781;28;20603;-49
2023/09/06 11:16:27;;;;;;;;;;;23.40;59.40;;;;;;8465838;28;20006;-50
2023/09/06 11:20:28;;;;;;;;;;;23.40;59.40;;;;;;8470555;27;19923;-51
2023/09/06 11:24:33;;;;;;;;;;;23.50;59.40;;;;;;8500145;27;20356;-49
2023/09/06 11:28:35;;;;;;;;;;;23.40;59.30;;;;;;8498238;27;19911;-52
2023/09/06 11:32:36;;;;;;;;;;;23.50;59.40;;;;;;8499484;27;19911;-51
2023/09/06 11:36:37;;;;;;;;;;;23.40;59.30;;;;;;8498117;27;19911;-50
2023/09/06 11:40:38;;;;;;;;;;;23.50;59.40;;;;;;8498236;27;19960;-49
2023/09/06 11:44:43;;;;;;;;;;;23.50;59.40;;;;;;8498790;27;19951;-52
2023/09/06 11:48:44;;;;;;;;;;;23.50;59.40;;;;;;8499183;27;20636;-51
2023/09/06 11:52:48;;;;;;;;;;;23.40;59.40;;;;;;8499095;27;19908;-50
2023/09/06 11:56:49;;;;;;;;;;;23.50;59.40;;;;;;8498005;27;19938;-51
2023/09/06 12:00:50;;;;;;;;;;;23.40;59.30;;;;;;8479929;27;20006;-49
2023/09/06 12:04:52;;;;;;;;;;;23.40;59.30;;;;;;8497599;27;20357;-51
2023/09/06 12:08:53;;;;;;;;;;;23.40;59.30;;;;;;8498146;27;19908;-49
2023/09/06 12:12:55;;;;;;;;;;;23.40;59.30;;;;;;8496969;27;20010;-52
2023/09/06 12:16:56;;;;;;;;;;;23.40;59.30;;;;;;8496806;27;19912;-51
2023/09/06 12:20:57;;;;;;;;;;;23.40;59.30;;;;;;8497015;27;19921;-50
2023/09/06 12:24:58;;;;;;;;;;;23.50;59.30;;;;;;8497585;27;19960;-49
2023/09/06 12:28:58;;;;;;;;;;;23.50;59.30;;;;;;8480222;27;19956;-51
2023/09/06 12:32:59;;;;;;;;;;;23.40;59.30;;;;;;8496719;27;20004;-50
2023/09/06 12:36:59;;;;;;;;;;;23.50;59.30;;;;;;8497537;27;19916;-51
2023/09/06 12:41:00;;;;;;;;;;;23.50;59.30;;;;;;8496071;27;19918;-50
2023/09/06 12:45:02;;;;;;;;;;;23.50;59.40;;;;;;8497157;27;20527;-50
2023/09/06 12:49:04;;;;;;;;;;;23.50;59.30;;;;;;8496019;27;19979;-50
2023/09/06 12:53:06;;;;;;;;;;;23.50;59.30;;;;;;8496997;27;19911;-51
2023/09/06 12:57:08;;;;;;;;;;;23.50;59.30;;;;;;8496468;27;19919;-49
2023/09/06 13:01:10;;;;;;;;;;;23.50;59.30;;;;;;8478639;27;20326;-49
2023/09/06 13:05:11;;;;;;;;;;;23.50;59.30;;;;;;8496787;27;19918;-51
2023/09/06 13:09:13;;;;;;;;;;;23.50;59.30;;;;;;8495727;28;20419;-51
2023/09/06 13:13:14;;;;;;;;;;;23.40;59.20;;;;;;8496773;28;19978;-51
2023/09/06 13:17:14;;;;;;;;;;;23.50;59.30;;;;;;8495476;28;20376;-50
2023/09/06 13:21:15;;;;;;;;;;;23.50;59.30;;;;;;8497127;28;19920;-51
2023/09/06 13:25:16;;;;;;;;;;;23.50;59.30;;;;;;8495487;27;19912;-48
2023/09/06 13:29:16;;;;;;;;;;;23.50;59.30;;;;;;8503617;27;19983;-49
2023/09/06 13:33:17;;;;;;;;;;;23.50;59.30;;;;;;8502728;27;20010;-50
2023/09/06 13:37:17;;;;;;;;;;;23.50;59.20;;;;;;8503188;27;19923;-52
2023/09/06 13:41:18;;;;;;;;;;;23.50;59.30;;;;;;8502829;27;19911;-51
2023/09/06 13:45:18;;;;;;;;;;;23.50;59.20;;;;;;8502471;27;19911;-49
2023/09/06 13:49:19;;;;;;;;;;;23.50;59.20;;;;;;8503069;27;19919;-50
2023/09/06 13:53:20;;;;;;;;;;;23.50;59.20;;;;;;8501870;27;19911;-50
2023/09/06 13:57:21;;;;;;;;;;;23.50;59.20;;;;;;8502912;27;20060;-50
2023/09/06 14:01:21;;;;;;;;;;;23.50;59.20;;;;;;8501363;27;20384;-51
2023/09/06 14:05:22;;;;;;;;;;;23.50;59.20;;;;;;8502556;27;19916;-50
2023/09/06 14:09:22;;;;;;;;;;;23.50;59.20;;;;;;8501053;27;20284;-51
2023/09/06 14:13:23;;;;;;;;;;;23.50;59.20;;;;;;8502216;27;19912;-48
2023/09/06 14:17:24;;;;;;;;;;;23.50;59.20;;;;;;8501061;27;20636;-51
2023/09/06 14:21:25;;;;;;;;;;;23.50;59.20;;;;;;8501625;27;19924;-51
2023/09/06 14:25:25;;;;;;;;;;;23.50;59.10;;;;;;8483440;27;19919;-51
2023/09/06 14:29:26;;;;;;;;;;;23.50;59.10;;;;;;8500977;27;19916;-51
2023/09/06 14:33:27;;;;;;;;;;;23.50;59.10;;;;;;8501390;27;20001;-51
2023/09/06 14:37:28;;;;;;;;;;;23.50;59.10;;;;;;8499689;27;19916;-48
2023/09/06 14:41:29;;;;;;;;;;;23.50;59.10;;;;;;8501091;27;19911;-49
2023/09/06 14:45:29;;;;;;;;;;;23.50;59.10;;;;;;8501074;27;20003;-50
2023/09/06 14:49:30;;;;;;;;;;;23.50;59.10;;;;;;8500808;27;20006;-48
2023/09/06 14:53:31;;;;;;;;;;;23.50;59.10;;;;;;8500003;27;19912;-49
2023/09/06 14:57:31;;;;;;;;;;;23.50;59.10;;;;;;8500978;27;19998;-50
2023/09/06 15:01:33;;;;;;;;;;;23.50;59.20;;;;;;8499606;27;19938;-49
2023/09/06 15:05:34;;;;;;;;;;;23.50;59.10;;;;;;8500237;27;19915;-49
2023/09/06 15:09:37;;;;;;;;;;;23.50;59.10;;;;;;8499649;27;19950;-50
2023/09/06 15:13:37;;;;;;;;;;;23.50;59.20;;;;;;8499636;27;19943;-50
2023/09/06 15:17:38;;;;;;;;;;;23.50;59.20;;;;;;8500274;27;20454;-50
2023/09/06 15:21:42;;;;;;;;;;;23.50;59.20;;;;;;8498722;27;19972;-50
2023/09/06 15:25:46;;;;;;;;;;;23.50;59.20;;;;;;8499979;27;19919;-48
2023/09/06 15:29:46;;;;;;;;;;;23.50;59.20;;;;;;8498391;27;19937;-48
2023/09/06 15:33:47;;;;;;;;;;;23.50;59.20;;;;;;8499482;27;20382;-48
2023/09/06 15:37:57;;;;;;;;;;;23.50;59.20;;;;;;8498901;27;19918;-51
2023/09/06 15:41:58;;;;;;;;;;;23.50;59.20;;;;;;8479951;27;20397;-49
2023/09/06 15:45:58;;;;;;;;;;;23.50;59.20;;;;;;8498675;27;19912;-48
2023/09/06 15:49:59;;;;;;;;;;;23.50;59.20;;;;;;8497511;27;19919;-51
2023/09/06 15:53:59;;;;;;;;;;;23.50;59.20;;;;;;8499275;27;19912;-50
2023/09/06 15:58:00;;;;;;;;;;;23.50;59.20;;;;;;8497944;27;19915;-51
2023/09/06 16:02:00;;;;;;;;;;;23.50;59.20;;;;;;8480190;27;19915;-49
2023/09/06 16:06:01;;;;;;;;;;;23.50;59.20;;;;;;8497382;27;19922;-49
2023/09/06 16:10:02;;;;;;;;;;;23.50;59.20;;;;;;8498551;27;19916;-48
2023/09/06 16:14:03;;;;;;;;;;;23.50;59.20;;;;;;8497019;27;19998;-51
2023/09/06 16:18:04;;;;;;;;;;;23.50;59.20;;;;;;8498014;27;19915;-50
2023/09/06 16:22:05;;;;;;;;;;;23.50;59.20;;;;;;8498767;27;19930;-51
2023/09/06 16:26:06;;;;;;;;;;;23.50;59.20;;;;;;8498189;27;19911;-50
2023/09/06 16:30:08;;;;;;;;;;;23.50;59.20;;;;;;8498291;27;19907;-48
2023/09/06 16:34:08;;;;;;;;;;;23.50;59.20;;;;;;8496872;27;19955;-50
2023/09/06 16:38:09;;;;;;;;;;;23.50;59.20;;;;;;8498741;27;19916;-48
2023/09/06 16:42:09;;;;;;;;;;;23.50;59.20;;;;;;8496324;27;19911;-49
2023/09/06 16:46:10;;;;;;;;;;;23.50;59.20;;;;;;8497987;27;19961;-50
2023/09/06 16:50:10;;;;;;;;;;;23.50;59.20;;;;;;8496204;27;19912;-51
2023/09/06 16:54:11;;;;;;;;;;;23.50;59.20;;;;;;8497928;27;19912;-49
2023/09/06 16:58:12;;;;;;;;;;;23.50;59.20;;;;;;8496072;27;20017;-50
2023/09/06 17:02:12;;;;;;;;;;;23.50;59.20;;;;;;8497672;27;20388;-50
2023/09/06 17:06:13;;;;;;;;;;;23.50;59.20;;;;;;8496277;27;19911;-50
2023/09/06 17:10:13;;;;;;;;;;;23.50;59.20;;;;;;8496472;28;20391;-51
2023/09/06 17:14:14;;;;;;;;;;;23.50;59.20;;;;;;8496533;28;19911;-51
2023/09/06 17:18:14;;;;;;;;;;;23.50;59.20;;;;;;8495579;28;19915;-51
2023/09/06 17:22:15;;;;;;;;;;;23.50;59.20;;;;;;8496621;28;19924;-49
2023/09/06 17:26:15;;;;;;;;;;;23.50;59.20;;;;;;8495699;27;19918;-50
2023/09/06 17:30:16;;;;;;;;;;;23.50;59.20;;;;;;8496584;28;19918;-50
2023/09/06 17:34:16;;;;;;;;;;;23.50;59.20;;;;;;8494825;28;20280;-49
2023/09/06 17:38:17;;;;;;;;;;;23.50;59.20;;;;;;8495719;28;19915;-50
2023/09/06 17:42:18;;;;;;;;;;;23.50;59.20;;;;;;8494604;28;20375;-48
2023/09/06 17:46:24;;;;;;;;;;;23.50;59.20;;;;;;8512645;27;20002;-51
2023/09/06 17:50:24;;;;;;;;;;;23.50;59.20;;;;;;8495878;28;20357;-51
2023/09/06 17:54:29;;;;;;;;;;;23.50;59.20;;;;;;8495988;27;20318;-48
2023/09/06 17:58:29;;;;;;;;;;;23.50;59.20;;;;;;8495920;28;19916;-49
2023/09/06 18:02:32;;;;;;;;;;;23.50;59.20;;;;;;8477387;27;19964;-50
2023/09/06 18:06:32;;;;;;;;;;;23.50;59.20;;;;;;8530579;27;19964;-51
2023/09/06 18:10:33;;;;;;;;;;;23.50;59.20;;;;;;8529066;27;19917;-50
2023/09/06 18:14:33;;;;;;;;;;;23.50;59.20;;;;;;8534848;27;19911;-51
2023/09/06 18:18:34;;;;;;;;;;;23.50;59.20;;;;;;8535567;27;19921;-51
2023/09/06 18:22:35;;;;;;;;;;;23.50;59.20;;;;;;8517726;27;19951;-50
2023/09/06 18:26:36;;;;;;;;;;;23.50;59.20;;;;;;8498356;27;19918;-48
2023/09/06 18:30:37;;;;;;;;;;;23.50;59.20;;;;;;8501406;27;19914;-50
2023/09/06 18:34:37;;;;;;;;;;;23.50;59.30;;;;;;8501219;27;19960;-49
2023/09/06 18:38:38;;;;;;;;;;;23.50;59.20;;;;;;8500499;27;19912;-48
2023/09/06 18:42:42;;;;;;;;;;;23.50;59.30;;;;;;8501154;27;19972;-51
2023/09/06 18:46:43;;;;;;;;;;;23.50;59.30;;;;;;8499900;27;19911;-49
2023/09/06 18:50:47;;;;;;;;;;;23.50;59.30;;;;;;8500864;27;19958;-51
2023/09/06 18:54:47;;;;;;;;;;;23.50;59.30;;;;;;8500135;27;19908;-48
2023/09/06 18:58:48;;;;;;;;;;;23.50;59.30;;;;;;8500502;27;19923;-51
2023/09/06 19:02:48;;;;;;;;;;;23.50;59.30;;;;;;8499530;27;20284;-50
2023/09/06 19:06:49;;;;;;;;;;;23.50;59.30;;;;;;8500518;27;19918;-48
2023/09/06 19:10:49;;;;;;;;;;;23.50;59.30;;;;;;8499684;27;19911;-49
2023/09/06 19:14:50;;;;;;;;;;;23.50;59.30;;;;;;8499750;27;20276;-51
2023/09/06 19:18:50;;;;;;;;;;;23.50;59.30;;;;;;8500071;27;19915;-49
2023/09/06 19:22:52;;;;;;;;;;;23.50;59.30;;;;;;8479931;27;19923;-50
2023/09/06 19:26:53;;;;;;;;;;;23.50;59.30;;;;;;8499403;27;19916;-49
2023/09/06 19:30:54;;;;;;;;;;;23.50;59.30;;;;;;8498449;27;19911;-50
2023/09/06 19:34:55;;;;;;;;;;;23.50;59.30;;;;;;8499516;27;19907;-49
2023/09/06 19:38:56;;;;;;;;;;;23.50;59.30;;;;;;8498241;27;20010;-50
2023/09/06 19:42:56;;;;;;;;;;;23.40;59.20;;;;;;8515535;27;19919;-50
2023/09/06 19:46:57;;;;;;;;;;;23.40;59.30;;;;;;8498000;27;19917;-48
2023/09/06 19:50:57;;;;;;;;;;;23.40;59.30;;;;;;8499833;27;20364;-49
2023/09/06 19:54:59;;;;;;;;;;;23.50;59.30;;;;;;8498532;27;19919;-51
2023/09/06 19:59:00;;;;;;;;;;;23.50;59.30;;;;;;8498328;27;20277;-51
2023/09/06 20:03:00;;;;;;;;;;;23.40;59.30;;;;;;8498685;27;19937;-50
2023/09/06 20:07:01;;;;;;;;;;;23.50;59.30;;;;;;8497477;27;19919;-50
2023/09/06 20:11:02;;;;;;;;;;;23.50;59.30;;;;;;8498312;27;19911;-48
2023/09/06 20:15:03;;;;;;;;;;;23.50;59.30;;;;;;8497208;27;19919;-49
2023/09/06 20:19:04;;;;;;;;;;;23.40;59.30;;;;;;8498783;27;19934;-48
2023/09/06 20:23:05;;;;;;;;;;;23.40;59.30;;;;;;8496741;27;20025;-51
2023/09/06 20:27:08;;;;;;;;;;;23.40;59.30;;;;;;8507940;27;19912;-48
2023/09/06 20:31:08;;;;;;;;;;;23.40;59.30;;;;;;8496939;27;19911;-47
2023/09/06 20:35:09;;;;;;;;;;;23.40;59.30;;;;;;8496721;27;20532;-48
2023/09/06 20:39:11;;;;;;;;;;;23.40;59.30;;;;;;8497803;27;20371;-51
2023/09/06 20:43:12;;;;;;;;;;;23.40;59.30;;;;;;8496750;27;19950;-51
2023/09/06 20:47:12;;;;;;;;;;;23.40;59.30;;;;;;8498080;27;19964;-48
2023/09/06 20:51:16;;;;;;;;;;;23.40;59.30;;;;;;8496165;27;20006;-49
2023/09/06 20:55:17;;;;;;;;;;;23.40;59.30;;;;;;8479114;27;19973;-49
2023/09/06 20:59:17;;;;;;;;;;;23.40;59.30;;;;;;8495866;27;20013;-50
2023/09/06 21:03:18;;;;;;;;;;;23.40;59.30;;;;;;8497106;27;19964;-50
2023/09/06 21:07:18;;;;;;;;;;;23.40;59.30;;;;;;8495639;27;20364;-49
2023/09/06 21:11:19;;;;;;;;;;;23.40;59.30;;;;;;8496871;27;20014;-49
2023/09/06 21:15:19;;;;;;;;;;;23.40;59.30;;;;;;8496206;27;19911;-48
2023/09/06 21:19:20;;;;;;;;;;;23.40;59.30;;;;;;8495872;28;19916;-49
2023/09/06 21:23:21;;;;;;;;;;;23.40;59.30;;;;;;8496802;28;19923;-48
2023/09/06 21:27:22;;;;;;;;;;;23.40;59.30;;;;;;8495748;27;19912;-50
2023/09/06 21:31:23;;;;;;;;;;;23.40;59.30;;;;;;8496537;28;19971;-49
2023/09/06 21:35:24;;;;;;;;;;;23.40;59.30;;;;;;8495188;28;19941;-50
2023/09/06 21:39:24;;;;;;;;;;;23.40;59.30;;;;;;8496498;28;19911;-51
2023/09/06 21:43:25;;;;;;;;;;;23.40;59.30;;;;;;8494989;28;20405;-49
2023/09/06 21:47:25;;;;;;;;;;;23.40;59.30;;;;;;8497929;27;19912;-50
2023/09/06 21:51:26;;;;;;;;;;;23.40;59.30;;;;;;8501653;27;20459;-51
2023/09/06 21:55:26;;;;;;;;;;;23.40;59.30;;;;;;8503067;27;19931;-48
2023/09/06 21:59:28;;;;;;;;;;;23.40;59.30;;;;;;8502094;27;19918;-50
2023/09/06 22:03:28;;;;;;;;;;;23.40;59.30;;;;;;8501881;27;20388;-50
2023/09/06 22:07:29;;;;;;;;;;;23.40;59.30;;;;;;8502189;27;19912;-49
2023/09/06 22:11:30;;;;;;;;;;;23.40;59.30;;;;;;8500444;27;19919;-48
2023/09/06 22:15:31;;;;;;;;;;;23.40;59.30;;;;;;8500991;27;19915;-51
2023/09/06 22:19:31;;;;;;;;;;;23.40;59.30;;;;;;8500617;27;19960;-48
2023/09/06 22:23:32;;;;;;;;;;;23.40;59.30;;;;;;8501772;27;19930;-51
2023/09/06 22:27:33;;;;;;;;;;;23.40;59.30;;;;;;8501141;27;19911;-51
2023/09/06 22:31:34;;;;;;;;;;;23.40;59.30;;;;;;8502148;27;19908;-51
2023/09/06 22:35:35;;;;;;;;;;;23.40;59.30;;;;;;8500025;27;19915;-49
2023/09/06 22:39:35;;;;;;;;;;;23.40;59.30;;;;;;8501309;27;19918;-51
2023/09/06 22:43:36;;;;;;;;;;;23.40;59.30;;;;;;8500682;27;19912;-51
2023/09/06 22:47:36;;;;;;;;;;;23.40;59.30;;;;;;8500276;27;19919;-51
2023/09/06 22:51:41;;;;;;;;;;;23.40;59.30;;;;;;8500181;27;19918;-49
2023/09/06 22:55:42;;;;;;;;;;;23.40;59.30;;;;;;8499371;27;20383;-50
2023/09/06 22:59:43;;;;;;;;;;;23.40;59.30;;;;;;8499721;27;20272;-48
2023/09/06 23:03:44;;;;;;;;;;;23.40;59.30;;;;;;8499804;27;19916;-50
2023/09/06 23:07:44;;;;;;;;;;;23.40;59.30;;;;;;8500798;27;19999;-49
2023/09/06 23:11:46;;;;;;;;;;;23.40;59.30;;;;;;8498993;27;19915;-51
2023/09/06 23:15:47;;;;;;;;;;;23.40;59.30;;;;;;8500197;27;19922;-49
2023/09/06 23:19:51;;;;;;;;;;;23.40;59.30;;;;;;8481088;27;19954;-51
2023/09/06 23:23:56;;;;;;;;;;;23.40;59.30;;;;;;8465375;28;19924;-49